Dollar, United Kingdom
Current Conditions -  °F | °C
As of 6:20 AM on Friday 19 Dec 2014 (Local Time) from EGPH Reporting Station
Light Rain Light Rain  
Wind Chill: 29°   Ceiling: Unl
Heat Index: 39°   Visibility: 6mi
Dew Point: 36°   Wind: 22mph
Humidity: 87%   Direction: 250°WSW
Pressure: 29.5"   Gusts: 36mph
Location:  56.16°N, 3.67°W
Report Text: EGPH 190620Z 25019G31KT 9999 -RA FEW010 04/02 Q0999
Loading
Personal Weather Stations






























Interactive Weather Map New forecast layout! Learn more

10-Day Weather Forecast

Advertisements
Track Severe Weather on mobile